Dallas, Texas
Traffic Map
Current Weather Conditions
Dallas, Texas
Few Clouds
Few Clouds
26°
Feels Like: 27°
Wind Chill: 26° Ceiling: Unl
Heat Index: 27° Visibility: 10mi
Dew Point: 18° Wind: 10mph
Humidity: 62% Direction: 170° (S)
Pressure: 29.97in Gusts: 0mph
Raw Report DataKDAL 310753Z 17009KT 10SM FEW090 26/18 A2997 RMK AO2 SLP139 T02610183
Traffic Incident Summary
Active as of:
Severity:
Category:
InformationThere was an issue retrieving the traffic information for this location. Please try a different location or try again shortly.
Advertisements
Track Severe Weather on mobile